sensor_id;sensor_type;location;lat;lon;timestamp;pressure;altitude;pressure_sealevel;temperature;humidity
68889;BME280;55930;47.412;8.790;2023-04-02T00:00:17;94003.16;;;5.15;100.00
68889;BME280;55930;47.412;8.790;2023-04-02T00:07:24;94009.13;;;5.07;100.00
68889;BME280;55930;47.412;8.790;2023-04-02T00:10:55;94003.00;;;5.10;100.00
68889;BME280;55930;47.412;8.790;2023-04-02T00:17:41;94004.03;;;5.21;100.00
68889;BME280;55930;47.412;8.790;2023-04-02T00:21:13;94009.44;;;5.27;100.00
68889;BME280;55930;47.412;8.790;2023-04-02T00:24:33;94000.25;;;5.22;100.00
68889;BME280;55930;47.412;8.790;2023-04-02T00:27:55;94014.25;;;5.19;100.00
68889;BME280;55930;47.412;8.790;2023-04-02T00:31:18;94009.44;;;5.27;100.00
68889;BME280;55930;47.412;8.790;2023-04-02T00:34:40;94011.47;;;5.14;100.00
68889;BME280;55930;47.412;8.790;2023-04-02T00:38:00;94000.53;;;5.15;100.00
68889;BME280;55930;47.412;8.790;2023-04-02T00:41:24;94002.44;;;5.24;100.00
68889;BME280;55930;47.412;8.790;2023-04-02T00:44:48;94009.88;;;5.16;100.00
68889;BME280;55930;47.412;8.790;2023-04-02T00:51:50;94001.25;;;5.16;100.00
68889;BME280;55930;47.412;8.790;2023-04-02T00:58:52;93999.09;;;5.32;100.00
68889;BME280;55930;47.412;8.790;2023-04-02T01:05:36;94001.53;;;5.27;100.00
68889;BME280;55930;47.412;8.790;2023-04-02T01:09:21;94000.53;;;5.24;100.00
68889;BME280;55930;47.412;8.790;2023-04-02T01:23:56;94013.53;;;5.28;100.00
68889;BME280;55930;47.412;8.790;2023-04-02T01:27:24;94012.38;;;5.29;100.00
68889;BME280;55930;47.412;8.790;2023-04-02T01:30:51;94010.91;;;5.37;100.00
68889;BME280;55930;47.412;8.790;2023-04-02T01:34:15;94008.84;;;5.23;100.00
68889;BME280;55930;47.412;8.790;2023-04-02T01:38:06;94005.63;;;5.10;100.00
68889;BME280;55930;47.412;8.790;2023-04-02T01:41:45;94009.16;;;5.16;100.00
68889;BME280;55930;47.412;8.790;2023-04-02T01:45:13;94008.72;;;5.17;100.00
68889;BME280;55930;47.412;8.790;2023-04-02T01:48:34;94011.91;;;5.21;100.00
68889;BME280;55930;47.412;8.790;2023-04-02T01:51:55;94017.19;;;5.30;100.00
68889;BME280;55930;47.412;8.790;2023-04-02T01:55:28;94016.44;;;5.21;100.00
68889;BME280;55930;47.412;8.790;2023-04-02T01:58:49;94014.72;;;5.18;100.00
68889;BME280;55930;47.412;8.790;2023-04-02T02:02:13;94019.22;;;5.17;100.00
68889;BME280;55930;47.412;8.790;2023-04-02T02:05:33;94024.31;;;5.12;100.00
68889;BME280;55930;47.412;8.790;2023-04-02T02:08:58;94016.16;;;5.10;100.00
68889;BME280;55930;47.412;8.790;2023-04-02T02:12:21;94016.16;;;5.10;100.00
68889;BME280;55930;47.412;8.790;2023-04-02T02:15:41;94014.53;;;5.12;100.00
68889;BME280;55930;47.412;8.790;2023-04-02T02:19:03;94020.41;;;5.16;100.00
68889;BME280;55930;47.412;8.790;2023-04-02T02:22:30;94017.47;;;5.23;100.00
68889;BME280;55930;47.412;8.790;2023-04-02T02:25:53;94021.69;;;5.21;100.00
68889;BME280;55930;47.412;8.790;2023-04-02T02:29:17;94018.94;;;5.15;100.00
68889;BME280;55930;47.412;8.790;2023-04-02T02:32:46;94024.94;;;5.25;100.00
68889;BME280;55930;47.412;8.790;2023-04-02T02:39:50;94031.66;;;5.26;100.00
68889;BME280;55930;47.412;8.790;2023-04-02T02:43:13;94033.09;;;5.27;100.00
68889;BME280;55930;47.412;8.790;2023-04-02T02:46:59;94037.06;;;5.31;100.00
68889;BME280;55930;47.412;8.790;2023-04-02T02:50:28;94029.47;;;5.33;100.00
68889;BME280;55930;47.412;8.790;2023-04-02T02:53:53;94029.59;;;5.30;100.00
68889;BME280;55930;47.412;8.790;2023-04-02T02:57:21;94032.81;;;5.25;100.00
68889;BME280;55930;47.412;8.790;2023-04-02T03:00:43;94046.22;;;4.99;100.00
68889;BME280;55930;47.412;8.790;2023-04-02T03:04:04;94046.31;;;4.96;100.00
68889;BME280;55930;47.412;8.790;2023-04-02T03:07:26;94048.69;;;5.03;100.00
68889;BME280;55930;47.412;8.790;2023-04-02T03:10:59;94050.63;;;5.21;100.00
68889;BME280;55930;47.412;8.790;2023-04-02T03:14:37;94061.88;;;5.21;100.00
68889;BME280;55930;47.412;8.790;2023-04-02T03:21:58;94071.41;;;5.37;100.00
68889;BME280;55930;47.412;8.790;2023-04-02T03:25:38;94073.03;;;5.34;100.00
68889;BME280;55930;47.412;8.790;2023-04-02T03:29:16;94078.28;;;5.34;100.00
68889;BME280;55930;47.412;8.790;2023-04-02T03:32:39;94086.28;;;5.31;100.00
68889;BME280;55930;47.412;8.790;2023-04-02T03:36:29;94078.56;;;5.36;100.00
68889;BME280;55930;47.412;8.790;2023-04-02T03:40:00;94087.16;;;5.28;100.00
68889;BME280;55930;47.412;8.790;2023-04-02T03:43:24;94093.88;;;5.29;100.00
68889;BME280;55930;47.412;8.790;2023-04-02T03:46:51;94094.63;;;5.29;100.00
68889;BME280;55930;47.412;8.790;2023-04-02T03:50:39;94095.03;;;5.28;100.00
68889;BME280;55930;47.412;8.790;2023-04-02T03:54:01;94089.22;;;5.24;100.00
68889;BME280;55930;47.412;8.790;2023-04-02T04:04:32;94091.50;;;5.13;100.00
68889;BME280;55930;47.412;8.790;2023-04-02T04:07:59;94096.16;;;4.99;100.00
68889;BME280;55930;47.412;8.790;2023-04-02T04:11:24;94100.81;;;5.05;100.00
68889;BME280;55930;47.412;8.790;2023-04-02T04:14:55;94101.25;;;5.03;100.00
68889;BME280;55930;47.412;8.790;2023-04-02T04:22:14;94103.72;;;4.97;100.00
68889;BME280;55930;47.412;8.790;2023-04-02T04:25:38;94111.75;;;4.94;100.00
68889;BME280;55930;47.412;8.790;2023-04-02T04:29:24;94111.28;;;4.86;100.00
68889;BME280;55930;47.412;8.790;2023-04-02T04:32:55;94111.28;;;4.86;100.00
68889;BME280;55930;47.412;8.790;2023-04-02T04:36:27;94126.66;;;4.66;100.00
68889;BME280;55930;47.412;8.790;2023-04-02T04:40:07;94134.88;;;4.46;100.00
68889;BME280;55930;47.412;8.790;2023-04-02T04:47:07;94131.75;;;4.39;100.00
68889;BME280;55930;47.412;8.790;2023-04-02T04:54:25;94137.84;;;4.36;100.00
68889;BME280;55930;47.412;8.790;2023-04-02T04:57:47;94138.28;;;4.34;100.00
68889;BME280;55930;47.412;8.790;2023-04-02T05:04:41;94142.28;;;4.48;100.00
68889;BME280;55930;47.412;8.790;2023-04-02T05:08:21;94143.34;;;4.50;100.00
68889;BME280;55930;47.412;8.790;2023-04-02T05:11:49;94145.72;;;4.57;100.00
68889;BME280;55930;47.412;8.790;2023-04-02T05:15:25;94145.88;;;4.63;100.00
68889;BME280;55930;47.412;8.790;2023-04-02T05:19:06;94139.72;;;4.57;100.00
68889;BME280;55930;47.412;8.790;2023-04-02T05:22:52;94155.28;;;4.73;100.00
68889;BME280;55930;47.412;8.790;2023-04-02T05:26:19;94157.13;;;4.85;100.00
68889;BME280;55930;47.412;8.790;2023-04-02T05:29:43;94162.13;;;4.92;100.00
68889;BME280;55930;47.412;8.790;2023-04-02T05:33:17;94155.13;;;4.98;100.00
68889;BME280;55930;47.412;8.790;2023-04-02T05:36:38;94161.59;;;5.07;100.00
68889;BME280;55930;47.412;8.790;2023-04-02T05:40:09;94163.41;;;5.19;100.00
68889;BME280;55930;47.412;8.790;2023-04-02T05:43:33;94162.56;;;5.31;100.00
68889;BME280;55930;47.412;8.790;2023-04-02T05:47:03;94175.00;;;5.39;100.00
68889;BME280;55930;47.412;8.790;2023-04-02T05:50:33;94172.97;;;5.34;100.00
68889;BME280;55930;47.412;8.790;2023-04-02T05:53:59;94178.69;;;5.51;100.00
68889;BME280;55930;47.412;8.790;2023-04-02T05:57:30;94180.06;;;5.65;100.00
68889;BME280;55930;47.412;8.790;2023-04-02T06:00:58;94186.28;;;5.89;100.00
68889;BME280;55930;47.412;8.790;2023-04-02T06:08:07;94191.94;;;6.88;100.00
68889;BME280;55930;47.412;8.790;2023-04-02T06:11:35;94188.75;;;7.59;100.00
68889;BME280;55930;47.412;8.790;2023-04-02T06:15:01;94193.78;;;7.15;100.00
68889;BME280;55930;47.412;8.790;2023-04-02T06:18:27;94196.53;;;7.20;100.00
68889;BME280;55930;47.412;8.790;2023-04-02T06:21:50;94191.03;;;7.09;100.00
68889;BME280;55930;47.412;8.790;2023-04-02T06:25:21;94192.47;;;7.10;100.00
68889;BME280;55930;47.412;8.790;2023-04-02T06:28:49;94197.44;;;7.17;97.49
68889;BME280;55930;47.412;8.790;2023-04-02T06:32:12;94194.25;;;7.04;98.66
68889;BME280;55930;47.412;8.790;2023-04-02T06:35:34;94198.81;;;7.37;97.21
68889;BME280;55930;47.412;8.790;2023-04-02T06:39:00;94197.81;;;7.34;96.45
68889;BME280;55930;47.412;8.790;2023-04-02T06:42:29;94205.56;;;7.38;97.47
68889;BME280;55930;47.412;8.790;2023-04-02T06:45:54;94220.38;;;7.68;96.22
68889;BME280;55930;47.412;8.790;2023-04-02T06:49:41;94212.66;;;7.64;95.17
68889;BME280;55930;47.412;8.790;2023-04-02T06:53:06;94215.06;;;8.25;93.22
68889;BME280;55930;47.412;8.790;2023-04-02T06:56:49;94218.50;;;8.16;94.01
68889;BME280;55930;47.412;8.790;2023-04-02T07:00:29;94228.66;;;7.85;94.17
68889;BME280;55930;47.412;8.790;2023-04-02T07:03:52;94236.63;;;8.32;90.71
68889;BME280;55930;47.412;8.790;2023-04-02T07:07:12;94236.56;;;8.80;85.69
68889;BME280;55930;47.412;8.790;2023-04-02T07:10:33;94244.31;;;8.83;87.76
68889;BME280;55930;47.412;8.790;2023-04-02T07:13:53;94238.03;;;8.81;85.45
68889;BME280;55930;47.412;8.790;2023-04-02T07:17:17;94242.66;;;8.71;85.46
68889;BME280;55930;47.412;8.790;2023-04-02T07:20:38;94241.03;;;8.74;86.27
68889;BME280;55930;47.412;8.790;2023-04-02T07:24:00;94254.34;;;8.79;86.06
68889;BME280;55930;47.412;8.790;2023-04-02T07:27:21;94252.69;;;9.70;81.46
68889;BME280;55930;47.412;8.790;2023-04-02T07:30:42;94257.56;;;9.57;83.03
68889;BME280;55930;47.412;8.790;2023-04-02T07:34:04;94256.72;;;9.51;82.87
68889;BME280;55930;47.412;8.790;2023-04-02T07:37:25;94259.31;;;9.95;81.55
68889;BME280;55930;47.412;8.790;2023-04-02T07:40:48;94260.69;;;11.12;76.41
68889;BME280;55930;47.412;8.790;2023-04-02T07:44:09;94254.78;;;11.54;73.84
68889;BME280;55930;47.412;8.790;2023-04-02T07:47:29;94255.13;;;10.64;75.86
68889;BME280;55930;47.412;8.790;2023-04-02T07:50:51;94257.44;;;11.85;72.54
68889;BME280;55930;47.412;8.790;2023-04-02T07:54:11;94257.53;;;14.84;59.87
68889;BME280;55930;47.412;8.790;2023-04-02T07:57:32;94257.22;;;15.40;55.25
68889;BME280;55930;47.412;8.790;2023-04-02T08:00:52;94263.81;;;16.48;52.85
68889;BME280;55930;47.412;8.790;2023-04-02T08:04:18;94268.22;;;17.63;50.95
68889;BME280;55930;47.412;8.790;2023-04-02T08:07:39;94259.56;;;17.70;48.42
68889;BME280;55930;47.412;8.790;2023-04-02T08:11:06;94259.56;;;14.67;54.50
68889;BME280;55930;47.412;8.790;2023-04-02T08:14:26;94279.66;;;14.79;54.70
68889;BME280;55930;47.412;8.790;2023-04-02T08:17:50;94270.34;;;14.17;55.77
68889;BME280;55930;47.412;8.790;2023-04-02T08:21:10;94281.50;;;14.96;55.17
68889;BME280;55930;47.412;8.790;2023-04-02T08:24:31;94276.78;;;17.75;48.76
68889;BME280;55930;47.412;8.790;2023-04-02T08:27:51;94283.56;;;15.96;50.34
68889;BME280;55930;47.412;8.790;2023-04-02T08:31:12;94284.59;;;14.59;55.41
68889;BME280;55930;47.412;8.790;2023-04-02T08:34:32;94294.91;;;19.66;44.38
68889;BME280;55930;47.412;8.790;2023-04-02T08:37:52;94285.44;;;18.00;44.91
68889;BME280;55930;47.412;8.790;2023-04-02T08:41:24;94303.06;;;18.80;43.46
68889;BME280;55930;47.412;8.790;2023-04-02T08:48:16;94302.84;;;15.53;50.04
68889;BME280;55930;47.412;8.790;2023-04-02T08:51:37;94304.78;;;19.84;42.35
68889;BME280;55930;47.412;8.790;2023-04-02T08:55:01;94298.38;;;19.40;43.98
68889;BME280;55930;47.412;8.790;2023-04-02T08:58:36;94304.13;;;17.73;46.02
68889;BME280;55930;47.412;8.790;2023-04-02T09:05:39;94310.38;;;14.17;56.13
68889;BME280;55930;47.412;8.790;2023-04-02T09:09:01;94314.69;;;14.48;55.25
68889;BME280;55930;47.412;8.790;2023-04-02T09:12:27;94318.34;;;13.33;56.97
68889;BME280;55930;47.412;8.790;2023-04-02T09:15:52;94318.63;;;12.76;59.46
68889;BME280;55930;47.412;8.790;2023-04-02T09:19:22;94324.81;;;12.51;61.00
68889;BME280;55930;47.412;8.790;2023-04-02T09:22:49;94330.06;;;12.40;61.91
68889;BME280;55930;47.412;8.790;2023-04-02T09:29:45;94335.25;;;12.17;62.58
68889;BME280;55930;47.412;8.790;2023-04-02T09:33:06;94342.47;;;12.11;62.78
68889;BME280;55930;47.412;8.790;2023-04-02T09:40:27;94348.09;;;13.21;61.22
68889;BME280;55930;47.412;8.790;2023-04-02T09:43:47;94344.00;;;13.25;59.55
68889;BME280;55930;47.412;8.790;2023-04-02T09:47:23;94346.75;;;17.02;51.63
68889;BME280;55930;47.412;8.790;2023-04-02T09:50:44;94353.81;;;16.80;50.81
68889;BME280;55930;47.412;8.790;2023-04-02T09:54:15;94360.53;;;17.11;48.38
68889;BME280;55930;47.412;8.790;2023-04-02T09:57:38;94359.69;;;19.21;45.99
68889;BME280;55930;47.412;8.790;2023-04-02T10:00:59;94363.06;;;19.61;42.08
68889;BME280;55930;47.412;8.790;2023-04-02T10:04:41;94353.56;;;19.34;41.33
68889;BME280;55930;47.412;8.790;2023-04-02T10:08:24;94357.03;;;15.89;50.39
68889;BME280;55930;47.412;8.790;2023-04-02T10:11:47;94362.50;;;14.57;51.82
68889;BME280;55930;47.412;8.790;2023-04-02T10:15:24;94366.84;;;14.38;53.61
68889;BME280;55930;47.412;8.790;2023-04-02T10:18:48;94369.44;;;12.73;59.23
68889;BME280;55930;47.412;8.790;2023-04-02T10:22:21;94369.03;;;13.89;54.73
68889;BME280;55930;47.412;8.790;2023-04-02T10:26:11;94379.00;;;16.72;49.84
68889;BME280;55930;47.412;8.790;2023-04-02T10:33:29;94381.69;;;17.15;50.44
68889;BME280;55930;47.412;8.790;2023-04-02T10:36:55;94379.44;;;16.46;46.13
68889;BME280;55930;47.412;8.790;2023-04-02T10:40:35;94383.31;;;16.21;48.86
68889;BME280;55930;47.412;8.790;2023-04-02T10:47:52;94395.28;;;14.52;53.05
68889;BME280;55930;47.412;8.790;2023-04-02T10:55:05;94390.31;;;17.08;49.50
68889;BME280;55930;47.412;8.790;2023-04-02T10:58:36;94396.78;;;15.22;49.19
68889;BME280;55930;47.412;8.790;2023-04-02T11:02:00;94399.41;;;17.24;47.88
68889;BME280;55930;47.412;8.790;2023-04-02T11:09:14;94400.38;;;14.50;53.04
68889;BME280;55930;47.412;8.790;2023-04-02T11:12:42;94403.97;;;16.26;49.94
68889;BME280;55930;47.412;8.790;2023-04-02T11:16:05;94408.47;;;16.96;48.16
68889;BME280;55930;47.412;8.790;2023-04-02T11:23:04;94407.19;;;15.31;48.23
68889;BME280;55930;47.412;8.790;2023-04-02T11:26:32;94396.59;;;17.53;45.14
68889;BME280;55930;47.412;8.790;2023-04-02T11:33:39;94400.31;;;22.71;36.34
68889;BME280;55930;47.412;8.790;2023-04-02T11:37:02;94394.25;;;24.71;31.28
68889;BME280;55930;47.412;8.790;2023-04-02T11:44:00;94395.31;;;29.16;27.37
68889;BME280;55930;47.412;8.790;2023-04-02T11:47:26;94400.56;;;18.80;43.09
68889;BME280;55930;47.412;8.790;2023-04-02T11:50:46;94401.97;;;18.68;43.14
68889;BME280;55930;47.412;8.790;2023-04-02T11:54:21;94397.38;;;25.61;29.98
68889;BME280;55930;47.412;8.790;2023-04-02T11:57:50;94401.84;;;24.48;30.83
68889;BME280;55930;47.412;8.790;2023-04-02T12:05:14;94399.38;;;22.08;35.48
68889;BME280;55930;47.412;8.790;2023-04-02T12:12:37;94412.31;;;18.77;41.05
68889;BME280;55930;47.412;8.790;2023-04-02T12:15:58;94409.38;;;18.17;43.54
68889;BME280;55930;47.412;8.790;2023-04-02T12:19:19;94416.03;;;20.34;39.27
68889;BME280;55930;47.412;8.790;2023-04-02T12:22:47;94405.44;;;17.05;43.72
68889;BME280;55930;47.412;8.790;2023-04-02T12:29:46;94404.91;;;27.26;29.57
68889;BME280;55930;47.412;8.790;2023-04-02T12:37:00;94398.63;;;17.47;42.04
68889;BME280;55930;47.412;8.790;2023-04-02T12:40:24;94410.78;;;16.27;46.86
68889;BME280;55930;47.412;8.790;2023-04-02T12:43:45;94414.31;;;15.06;45.67
68889;BME280;55930;47.412;8.790;2023-04-02T12:47:06;94420.13;;;15.10;46.47
68889;BME280;55930;47.412;8.790;2023-04-02T12:50:26;94409.25;;;16.01;45.99
68889;BME280;55930;47.412;8.790;2023-04-02T12:53:49;94412.88;;;16.94;44.56
68889;BME280;55930;47.412;8.790;2023-04-02T13:00:46;94408.13;;;17.05;45.62
68889;BME280;55930;47.412;8.790;2023-04-02T13:04:09;94413.16;;;16.30;46.24
68889;BME280;55930;47.412;8.790;2023-04-02T13:07:32;94407.78;;;16.60;46.96
68889;BME280;55930;47.412;8.790;2023-04-02T13:11:00;94408.03;;;20.42;39.10
68889;BME280;55930;47.412;8.790;2023-04-02T13:14:22;94405.63;;;18.52;40.75
68889;BME280;55930;47.412;8.790;2023-04-02T13:17:45;94400.41;;;26.46;29.67
68889;BME280;55930;47.412;8.790;2023-04-02T13:24:36;94404.09;;;25.87;30.10
68889;BME280;55930;47.412;8.790;2023-04-02T13:27:57;94397.03;;;17.39;42.39
68889;BME280;55930;47.412;8.790;2023-04-02T13:31:18;94407.81;;;14.90;47.46
68889;BME280;55930;47.412;8.790;2023-04-02T13:34:38;94409.78;;;14.73;49.00
68889;BME280;55930;47.412;8.790;2023-04-02T13:37:59;94410.78;;;14.14;50.38
68889;BME280;55930;47.412;8.790;2023-04-02T13:41:24;94416.09;;;14.31;51.15
68889;BME280;55930;47.412;8.790;2023-04-02T13:44:49;94404.94;;;13.88;51.56
68889;BME280;55930;47.412;8.790;2023-04-02T13:48:13;94415.38;;;13.92;52.80
68889;BME280;55930;47.412;8.790;2023-04-02T13:51:37;94405.34;;;13.53;53.07
68889;BME280;55930;47.412;8.790;2023-04-02T13:54:57;94398.19;;;20.10;39.62
68889;BME280;55930;47.412;8.790;2023-04-02T13:58:19;94384.63;;;22.77;34.13
68889;BME280;55930;47.412;8.790;2023-04-02T14:01:42;94376.16;;;26.86;27.52
68889;BME280;55930;47.412;8.790;2023-04-02T14:05:11;94378.94;;;27.34;27.28
68889;BME280;55930;47.412;8.790;2023-04-02T14:08:41;94371.56;;;25.79;28.57
68889;BME280;55930;47.412;8.790;2023-04-02T14:12:15;94401.09;;;18.47;40.03
68889;BME280;55930;47.412;8.790;2023-04-02T14:30:58;94414.06;;;16.44;46.92
68889;BME280;55930;47.412;8.790;2023-04-02T14:38:42;94420.94;;;14.83;50.23
68889;BME280;55930;47.412;8.790;2023-04-02T14:42:10;94420.84;;;15.22;51.13
68889;BME280;55930;47.412;8.790;2023-04-02T14:46:06;94429.94;;;14.69;52.62
68889;BME280;55930;47.412;8.790;2023-04-02T14:49:34;94427.31;;;14.41;52.13
68889;BME280;55930;47.412;8.790;2023-04-02T14:53:06;94419.44;;;15.67;49.60
68889;BME280;55930;47.412;8.790;2023-04-02T14:56:32;94421.19;;;20.32;40.52
68889;BME280;55930;47.412;8.790;2023-04-02T15:03:26;94416.19;;;24.08;33.37
68889;BME280;55930;47.412;8.790;2023-04-02T15:06:51;94416.88;;;19.61;37.96
68889;BME280;55930;47.412;8.790;2023-04-02T15:17:10;94425.31;;;14.80;47.83
68889;BME280;55930;47.412;8.790;2023-04-02T15:20:58;94429.34;;;15.20;50.81
68889;BME280;55930;47.412;8.790;2023-04-02T15:31:44;94441.34;;;15.49;47.99
68889;BME280;55930;47.412;8.790;2023-04-02T15:39:07;94440.69;;;15.38;49.55
68889;BME280;55930;47.412;8.790;2023-04-02T15:42:36;94434.34;;;15.46;48.14
68889;BME280;55930;47.412;8.790;2023-04-02T15:46:27;94434.28;;;14.77;49.28
68889;BME280;55930;47.412;8.790;2023-04-02T15:54:00;94443.34;;;15.43;50.90
68889;BME280;55930;47.412;8.790;2023-04-02T16:11:49;94465.22;;;13.58;55.80
68889;BME280;55930;47.412;8.790;2023-04-02T16:15:16;94471.41;;;12.53;61.76
68889;BME280;55930;47.412;8.790;2023-04-02T16:25:47;94492.34;;;11.68;69.67
68889;BME280;55930;47.412;8.790;2023-04-02T16:32:59;94503.47;;;10.76;74.84
68889;BME280;55930;47.412;8.790;2023-04-02T16:40:09;94520.88;;;10.77;76.00
68889;BME280;55930;47.412;8.790;2023-04-02T16:43:39;94529.41;;;11.01;74.60
68889;BME280;55930;47.412;8.790;2023-04-02T16:51:05;94545.31;;;10.52;77.20
68889;BME280;55930;47.412;8.790;2023-04-02T16:54:38;94547.38;;;10.18;73.33
68889;BME280;55930;47.412;8.790;2023-04-02T16:58:22;94562.97;;;10.16;72.80
68889;BME280;55930;47.412;8.790;2023-04-02T17:05:25;94572.69;;;9.57;74.69
68889;BME280;55930;47.412;8.790;2023-04-02T17:09:14;94572.22;;;9.35;75.29
68889;BME280;55930;47.412;8.790;2023-04-02T17:12:43;94582.31;;;9.12;75.43
68889;BME280;55930;47.412;8.790;2023-04-02T17:16:19;94601.84;;;8.73;78.83
68889;BME280;55930;47.412;8.790;2023-04-02T17:19:42;94596.94;;;8.99;78.20
68889;BME280;55930;47.412;8.790;2023-04-02T17:23:03;94602.25;;;8.90;78.23
68889;BME280;55930;47.412;8.790;2023-04-02T17:26:27;94612.44;;;8.73;79.45
68889;BME280;55930;47.412;8.790;2023-04-02T17:29:51;94611.91;;;8.51;81.14
68889;BME280;55930;47.412;8.790;2023-04-02T17:33:16;94612.06;;;8.38;81.96
68889;BME280;55930;47.412;8.790;2023-04-02T17:40:28;94622.47;;;8.51;82.39
68889;BME280;55930;47.412;8.790;2023-04-02T18:02:21;94639.78;;;7.97;93.10
68889;BME280;55930;47.412;8.790;2023-04-02T18:05:53;94647.25;;;7.89;92.37
68889;BME280;55930;47.412;8.790;2023-04-02T18:09:37;94646.66;;;7.85;92.61
68889;BME280;55930;47.412;8.790;2023-04-02T18:13:17;94657.63;;;7.75;93.44
68889;BME280;55930;47.412;8.790;2023-04-02T18:31:21;94673.06;;;7.05;100.00
68889;BME280;55930;47.412;8.790;2023-04-02T18:38:59;94691.94;;;7.04;100.00
68889;BME280;55930;47.412;8.790;2023-04-02T18:46:00;94692.00;;;7.13;100.00
68889;BME280;55930;47.412;8.790;2023-04-02T18:49:27;94705.25;;;7.22;100.00
68889;BME280;55930;47.412;8.790;2023-04-02T18:52:51;94704.13;;;7.32;100.00
68889;BME280;55930;47.412;8.790;2023-04-02T18:56:17;94706.16;;;7.28;100.00
68889;BME280;55930;47.412;8.790;2023-04-02T18:59:45;94704.25;;;7.28;100.00
68889;BME280;55930;47.412;8.790;2023-04-02T19:07:10;94713.09;;;7.13;100.00
68889;BME280;55930;47.412;8.790;2023-04-02T19:10:35;94721.28;;;7.37;100.00
68889;BME280;55930;47.412;8.790;2023-04-02T19:14:01;94726.88;;;7.39;100.00
68889;BME280;55930;47.412;8.790;2023-04-02T19:17:38;94738.06;;;7.52;100.00
68889;BME280;55930;47.412;8.790;2023-04-02T19:21:10;94735.97;;;7.38;100.00
68889;BME280;55930;47.412;8.790;2023-04-02T19:25:00;94737.03;;;7.18;100.00
68889;BME280;55930;47.412;8.790;2023-04-02T19:32:16;94749.31;;;7.12;100.00
68889;BME280;55930;47.412;8.790;2023-04-02T19:36:04;94748.94;;;7.23;100.00
68889;BME280;55930;47.412;8.790;2023-04-02T19:43:37;94761.00;;;7.11;100.00
68889;BME280;55930;47.412;8.790;2023-04-02T19:46:58;94756.06;;;7.13;100.00
68889;BME280;55930;47.412;8.790;2023-04-02T19:50:19;94765.94;;;7.00;100.00
68889;BME280;55930;47.412;8.790;2023-04-02T19:53:40;94769.81;;;7.08;100.00
68889;BME280;55930;47.412;8.790;2023-04-02T19:57:00;94768.03;;;6.83;100.00
68889;BME280;55930;47.412;8.790;2023-04-02T20:00:21;94778.22;;;6.94;100.00
68889;BME280;55930;47.412;8.790;2023-04-02T20:03:41;94772.13;;;6.84;100.00
68889;BME280;55930;47.412;8.790;2023-04-02T20:07:04;94779.13;;;6.78;100.00
68889;BME280;55930;47.412;8.790;2023-04-02T20:10:26;94802.72;;;6.82;100.00
68889;BME280;55930;47.412;8.790;2023-04-02T20:13:46;94801.28;;;6.68;100.00
68889;BME280;55930;47.412;8.790;2023-04-02T20:17:09;94799.75;;;6.80;100.00
68889;BME280;55930;47.412;8.790;2023-04-02T20:20:30;94798.25;;;6.91;100.00
68889;BME280;55930;47.412;8.790;2023-04-02T20:23:54;94798.06;;;6.86;100.00
68889;BME280;55930;47.412;8.790;2023-04-02T20:27:15;94803.78;;;6.84;100.00
68889;BME280;55930;47.412;8.790;2023-04-02T20:30:36;94803.94;;;6.68;100.00
68889;BME280;55930;47.412;8.790;2023-04-02T20:33:57;94805.50;;;6.66;100.00
68889;BME280;55930;47.412;8.790;2023-04-02T20:37:19;94812.09;;;6.83;100.00
68889;BME280;55930;47.412;8.790;2023-04-02T20:40:42;94807.72;;;6.67;100.00
68889;BME280;55930;47.412;8.790;2023-04-02T20:44:02;94816.56;;;6.73;100.00
68889;BME280;55930;47.412;8.790;2023-04-02T20:47:23;94813.81;;;6.77;100.00
68889;BME280;55930;47.412;8.790;2023-04-02T20:50:43;94820.94;;;6.89;100.00
68889;BME280;55930;47.412;8.790;2023-04-02T20:54:05;94828.59;;;6.74;100.00
68889;BME280;55930;47.412;8.790;2023-04-02T20:57:28;94838.56;;;6.79;100.00
68889;BME280;55930;47.412;8.790;2023-04-02T21:00:48;94825.47;;;6.88;100.00
68889;BME280;55930;47.412;8.790;2023-04-02T21:04:09;94832.06;;;6.71;100.00
68889;BME280;55930;47.412;8.790;2023-04-02T21:07:29;94839.34;;;6.67;100.00
68889;BME280;55930;47.412;8.790;2023-04-02T21:10:50;94837.91;;;6.53;100.00
68889;BME280;55930;47.412;8.790;2023-04-02T21:14:10;94837.66;;;6.73;100.00
68889;BME280;55930;47.412;8.790;2023-04-02T21:17:31;94849.81;;;6.58;100.00
68889;BME280;55930;47.412;8.790;2023-04-02T21:21:02;94847.59;;;6.57;100.00
68889;BME280;55930;47.412;8.790;2023-04-02T21:24:23;94853.50;;;6.48;100.00
68889;BME280;55930;47.412;8.790;2023-04-02T21:27:44;94848.88;;;6.52;100.00
68889;BME280;55930;47.412;8.790;2023-04-02T21:31:07;94850.78;;;6.51;100.00
68889;BME280;55930;47.412;8.790;2023-04-02T21:34:31;94858.81;;;6.35;100.00
68889;BME280;55930;47.412;8.790;2023-04-02T21:37:51;94853.41;;;6.39;100.00
68889;BME280;55930;47.412;8.790;2023-04-02T21:41:17;94857.72;;;6.58;100.00
68889;BME280;55930;47.412;8.790;2023-04-02T21:44:38;94855.63;;;6.40;100.00
68889;BME280;55930;47.412;8.790;2023-04-02T21:47:58;94854.78;;;6.43;100.00
68889;BME280;55930;47.412;8.790;2023-04-02T21:51:21;94857.97;;;6.38;100.00
68889;BME280;55930;47.412;8.790;2023-04-02T21:54:42;94860.38;;;6.33;100.00
68889;BME280;55930;47.412;8.790;2023-04-02T21:58:02;94862.28;;;6.32;100.00
68889;BME280;55930;47.412;8.790;2023-04-02T22:01:25;94859.22;;;6.34;100.00
68889;BME280;55930;47.412;8.790;2023-04-02T22:04:48;94868.09;;;6.27;100.00
68889;BME280;55930;47.412;8.790;2023-04-02T22:08:11;94863.34;;;6.22;100.00
68889;BME280;55930;47.412;8.790;2023-04-02T22:11:39;94864.72;;;6.14;100.00
68889;BME280;55930;47.412;8.790;2023-04-02T22:15:00;94867.97;;;5.93;100.00
68889;BME280;55930;47.412;8.790;2023-04-02T22:18:21;94870.28;;;6.03;100.00
68889;BME280;55930;47.412;8.790;2023-04-02T22:21:42;94872.94;;;6.03;100.00
68889;BME280;55930;47.412;8.790;2023-04-02T22:25:06;94876.50;;;5.97;100.00
68889;BME280;55930;47.412;8.790;2023-04-02T22:28:27;94881.34;;;5.98;100.00
68889;BME280;55930;47.412;8.790;2023-04-02T22:31:47;94878.16;;;5.91;100.00
68889;BME280;55930;47.412;8.790;2023-04-02T22:35:09;94877.81;;;5.76;100.00
68889;BME280;55930;47.412;8.790;2023-04-02T22:38:30;94886.69;;;5.82;100.00